Map

Track Data

SID SEASON NUMBER BASIN SUBBASIN NAME ISO_TIME NATURE LAT LON WMO_WIND WMO_PRES WMO_AGENCY TRACK_TYPE DIST2LAND LANDFALL IFLAG USA_AGENCY USA_ATCF_ID USA_LAT USA_LON USA_RECORD USA_STATUS USA_WIND USA_PRES USA_SSHS USA_R34_NE USA_R34_SE USA_R34_SW USA_R34_NW USA_R50_NE USA_R50_SE USA_R50_SW USA_R50_NW USA_R64_NE USA_R64_SE USA_R64_SW USA_R64_NW USA_POCI USA_ROCI USA_RMW USA_EYE TOKYO_LAT TOKYO_LON TOKYO_GRADE TOKYO_WIND TOKYO_PRES TOKYO_R50_DIR TOKYO_R50_LONG TOKYO_R50_SHORT TOKYO_R30_DIR TOKYO_R30_LONG TOKYO_R30_SHORT TOKYO_LAND CMA_LAT CMA_LON CMA_CAT CMA_WIND CMA_PRES HKO_LAT HKO_LON HKO_CAT HKO_WIND HKO_PRES NEWDELHI_LAT NEWDELHI_LON NEWDELHI_GRADE NEWDELHI_WIND NEWDELHI_PRES NEWDELHI_CI NEWDELHI_DP NEWDELHI_POCI REUNION_LAT REUNION_LON REUNION_TYPE REUNION_WIND REUNION_PRES REUNION_TNUM REUNION_CI REUNION_RMW REUNION_R34_NE REUNION_R34_SE REUNION_R34_SW REUNION_R34_NW REUNION_R50_NE REUNION_R50_SE REUNION_R50_SW REUNION_R50_NW REUNION_R64_NE REUNION_R64_SE REUNION_R64_SW REUNION_R64_NW BOM_LAT BOM_LON BOM_TYPE BOM_WIND BOM_PRES BOM_TNUM BOM_CI BOM_RMW BOM_R34_NE BOM_R34_SE BOM_R34_SW BOM_R34_NW BOM_R50_NE BOM_R50_SE BOM_R50_SW BOM_R50_NW BOM_R64_NE BOM_R64_SE BOM_R64_SW BOM_R64_NW BOM_ROCI BOM_POCI BOM_EYE BOM_POS_METHOD BOM_PRES_METHOD NADI_LAT NADI_LON NADI_CAT NADI_WIND NADI_PRES WELLINGTON_LAT WELLINGTON_LON WELLINGTON_WIND WELLINGTON_PRES DS824_LAT DS824_LON DS824_STAGE DS824_WIND DS824_PRES TD9636_LAT TD9636_LON TD9636_STAGE TD9636_WIND TD9636_PRES TD9635_LAT TD9635_LON TD9635_WIND TD9635_PRES TD9635_ROCI NEUMANN_LAT NEUMANN_LON NEUMANN_CLASS NEUMANN_WIND NEUMANN_PRES MLC_LAT MLC_LON MLC_CLASS MLC_WIND MLC_PRES USA_GUST BOM_GUST BOM_GUST_PER REUNION_GUST REUNION_GUST_PER USA_SEAHGT USA_SEARAD_NE USA_SEARAD_SE USA_SEARAD_SW USA_SEARAD_NW STORM_SPEED STORM_DIR
1929232N19121 1929 49 WP MM NOT_NAMED 1929-08-20 10:00:00 NR 18.7000 120.900 main 11 11 __________O___ -1 18.7000 120.900 7 3 263
1929232N19121 1929 49 WP MM NOT_NAMED 1929-08-20 12:00:00 NR 18.6892 120.806 main 11 11 __________P___ -1 18.6892 120.806 7 3 264
1929232N19121 1929 49 WP MM NOT_NAMED 1929-08-20 15:00:00 NR 18.6769 120.656 main 15 23 __________P___ -1 18.6769 120.656 7 3 267
1929232N19121 1929 49 WP MM NOT_NAMED 1929-08-20 18:00:00 NR 18.6752 120.485 main 33 33 __________P___ -1 18.6752 120.485 7 4 272
1929232N19121 1929 49 WP MM NOT_NAMED 1929-08-20 21:00:00 NR 18.6902 120.279 main 46 46 __________P___ -1 18.6902 120.279 7 4 275
1929232N19121 1929 49 WP MM NOT_NAMED 1929-08-20 22:00:00 NR 18.7000 120.200 main 53 53 __________O___ -1 18.7000 120.200 3 5 279
1929232N19121 1929 49 WP MM NOT_NAMED 1929-08-21 00:00:00 NR 18.7277 120.026 main 71 71 __________P___ -1 18.7277 120.026 3 5 281
1929232N19121 1929 49 WP MM NOT_NAMED 1929-08-21 03:00:00 NR 18.7881 119.733 main 104 104 __________P___ -1 18.7881 119.733 3 6 284
1929232N19121 1929 49 WP MM NOT_NAMED 1929-08-21 06:00:00 NR 18.8681 119.419 main 138 138 __________P___ -1 18.8681 119.419 3 6 286
1929232N19121 1929 49 WP MM NOT_NAMED 1929-08-21 09:00:00 NR 18.9646 119.103 main 171 171 __________P___ -1 18.9646 119.103 3 6 288
1929232N19121 1929 49 WP MM NOT_NAMED 1929-08-21 10:00:00 NR 19.0000 119.000 main 181 181 __________O___ -1 19.0000 119.000 4 6 288
1929232N19121 1929 49 WP MM NOT_NAMED 1929-08-21 12:00:00 NR 19.0560 118.813 main 205 205 __________P___ -1 19.0560 118.813 4 6 289
1929232N19121 1929 49 WP MM NOT_NAMED 1929-08-21 15:00:00 NR 19.1524 118.540 main 238 238 __________P___ -1 19.1524 118.540 4 6 293
1929232N19121 1929 49 WP MM NOT_NAMED 1929-08-21 18:00:00 NR 19.2748 118.269 main 262 262 __________P___ -1 19.2748 118.269 4 6 299
1929232N19121 1929 49 WP MM NOT_NAMED 1929-08-21 21:00:00 NR 19.4357 117.994 main 295 295 __________P___ -1 19.4357 117.994 4 6 303
1929232N19121 1929 49 WP MM NOT_NAMED 1929-08-21 22:00:00 NR 19.5000 117.900 main 309 309 __________O___ -1 19.5000 117.900 4 7 309
1929232N19121 1929 49 WP MM NOT_NAMED 1929-08-22 00:00:00 NR 19.6515 117.714 main 337 337 __________P___ -1 19.6515 117.714 4 7 313
1929232N19121 1929 49 WP MM NOT_NAMED 1929-08-22 03:00:00 NR 19.9168 117.428 main 348 308 __________P___ -1 19.9168 117.428 4 8 315
1929232N19121 1929 49 WP MM NOT_NAMED 1929-08-22 06:00:00 NR 20.2083 117.129 main 308 266 __________P___ -1 20.2083 117.129 4 8 315
1929232N19121 1929 49 WP MM NOT_NAMED 1929-08-22 09:00:00 NR 20.5042 116.811 main 266 252 __________P___ -1 20.5042 116.811 4 8 314
1929232N19121 1929 49 WP MM NOT_NAMED 1929-08-22 10:00:00 NR 20.6000 116.700 main 252 224 __________O___ -1 20.6000 116.700 4 8 311
1929232N19121 1929 49 WP MM NOT_NAMED 1929-08-22 12:00:00 NR 20.7775 116.472 main 224 192 __________P___ -1 20.7775 116.472 4 8 309
1929232N19121 1929 49 WP MM NOT_NAMED 1929-08-22 15:00:00 NR 21.0376 116.112 main 192 156 __________P___ -1 21.0376 116.112 4 9 306
1929232N19121 1929 49 WP MM NOT_NAMED 1929-08-22 18:00:00 NR 21.2876 115.732 main 156 119 __________P___ -1 21.2876 115.732 4 9 304
1929232N19121 1929 49 WP MM NOT_NAMED 1929-08-22 21:00:00 NR 21.5245 115.335 main 119 105 __________P___ -1 21.5245 115.335 4 9 302
1929232N19121 1929 49 WP MM NOT_NAMED 1929-08-22 22:00:00 NR 21.6000 115.200 main 105 78 __________O___ -1 21.6000 115.200 4 9 301
1929232N19121 1929 49 WP MM NOT_NAMED 1929-08-23 00:00:00 NR 21.7553 114.920 main 78 39 __________P___ -1 21.7553 114.920 4 9 300
1929232N19121 1929 49 WP MM NOT_NAMED 1929-08-23 03:00:00 NR 21.9758 114.488 main 39 22 __________P___ -1 21.9758 114.488 4 9 298
1929232N19121 1929 49 WP MM NOT_NAMED 1929-08-23 06:00:00 NR 22.1759 114.054 main 22 10 __________P___ -1 22.1759 114.054 4 9 295
1929232N19121 1929 49 WP MM NOT_NAMED 1929-08-23 09:00:00 NR 22.3492 113.634 main 10 0 __________P___ -1 22.3492 113.634 4 8 294
1929232N19121 1929 49 WP MM NOT_NAMED 1929-08-23 10:00:00 NR 22.4000 113.500 main 0 0 __________O___ -1 22.4000 113.500 4 8 291
1929232N19121 1929 49 WP MM NOT_NAMED 1929-08-23 12:00:00 NR 22.4905 113.243 main 0 0 __________P___ -1 22.4905 113.243 4 7 290
1929232N19121 1929 49 WP MM NOT_NAMED 1929-08-23 15:00:00 NR 22.6027 112.881 main 0 0 __________P___ -1 22.6027 112.881 4 7 287
1929232N19121 1929 49 WP MM NOT_NAMED 1929-08-23 18:00:00 NR 22.6946 112.539 main 0 0 __________P___ -1 22.6946 112.539 4 6 286
1929232N19121 1929 49 WP MM NOT_NAMED 1929-08-23 21:00:00 NR 22.7745 112.209 main 0 0 __________P___ -1 22.7745 112.209 4 6 285
1929232N19121 1929 49 WP MM NOT_NAMED 1929-08-23 22:00:00 NR 22.8000 112.100 main 0 __________O___ -1 22.8000 112.100 4 6 285

Digital Typhoon Data and Search

About IBTrACS Database

This database is a web-friendly format of International Best Track Archive for Climate Stewardship (IBTrACS), a global best track data archive curated by NOAA dating back to 1842.

Updated: 2021-10-21